createdAt,value
2023-11-13T00:01:31.591Z,5.49
2023-11-13T00:03:58.322Z,5.49
2023-11-13T00:06:24.879Z,5.48
2023-11-13T00:08:51.360Z,5.48
2023-11-13T00:11:17.939Z,5.45
2023-11-13T00:13:45.625Z,5.44
2023-11-13T00:16:12.260Z,5.42
2023-11-13T00:18:38.801Z,5.42
2023-11-13T00:21:05.501Z,5.41
2023-11-13T00:23:32.899Z,5.39
2023-11-13T00:25:59.675Z,5.37
2023-11-13T00:28:26.236Z,5.38
2023-11-13T00:30:53.198Z,5.36
2023-11-13T00:33:19.787Z,5.36
2023-11-13T00:35:46.262Z,5.35
2023-11-13T00:38:13.594Z,5.36
2023-11-13T00:40:40.915Z,5.34
2023-11-13T00:43:07.841Z,5.33
2023-11-13T00:45:34.651Z,5.34
2023-11-13T00:48:02.138Z,5.32
2023-11-13T00:50:29.037Z,5.34
2023-11-13T00:52:55.565Z,5.36
2023-11-13T00:55:22.413Z,5.34
2023-11-13T00:57:48.970Z,5.32
2023-11-13T01:00:16.367Z,5.32
2023-11-13T01:02:43.128Z,5.32
2023-11-13T01:05:09.934Z,5.32
2023-11-13T01:07:36.456Z,5.33
2023-11-13T01:10:03.168Z,5.33
2023-11-13T01:12:30.848Z,5.35
2023-11-13T01:14:59.628Z,5.36
2023-11-13T01:17:26.581Z,5.38
2023-11-13T01:19:53.139Z,5.40
2023-11-13T01:22:20.048Z,5.42
2023-11-13T01:24:46.684Z,5.43
2023-11-13T01:27:13.281Z,5.42
2023-11-13T01:29:39.790Z,5.43
2023-11-13T01:32:06.762Z,5.44
2023-11-13T01:34:37.322Z,5.45
2023-11-13T01:37:04.138Z,5.45
2023-11-13T01:39:30.697Z,5.45
2023-11-13T01:41:57.129Z,5.47
2023-11-13T01:44:25.898Z,5.47
2023-11-13T01:46:52.598Z,5.49
2023-11-13T01:49:20.827Z,5.50
2023-11-13T01:51:50.302Z,5.50
2023-11-13T01:54:21.317Z,5.52
2023-11-13T01:56:48.906Z,5.52
2023-11-13T01:59:16.431Z,5.53
2023-11-13T02:01:43.588Z,5.52
2023-11-13T02:04:10.714Z,5.53
2023-11-13T02:06:37.396Z,5.55
2023-11-13T02:09:06.567Z,5.56
2023-11-13T02:11:33.302Z,5.57
2023-11-13T02:13:59.845Z,5.57
2023-11-13T02:16:26.520Z,5.57
2023-11-13T02:18:53.548Z,5.58
2023-11-13T02:21:20.043Z,5.61
2023-11-13T02:23:46.801Z,5.61
2023-11-13T02:26:17.393Z,5.60
2023-11-13T02:28:44.671Z,5.63
2023-11-13T02:31:11.834Z,5.61
2023-11-13T02:33:38.474Z,5.64
2023-11-13T02:36:05.227Z,5.64
2023-11-13T02:38:31.857Z,5.66
2023-11-13T02:40:59.090Z,5.66
2023-11-13T02:43:26.530Z,5.67
2023-11-13T02:45:53.706Z,5.66
2023-11-13T02:48:20.712Z,5.66
2023-11-13T02:50:48.663Z,5.66
2023-11-13T02:53:16.416Z,5.67
2023-11-13T02:55:43.242Z,5.68
2023-11-13T02:58:09.974Z,5.67
2023-11-13T03:00:36.682Z,5.67
2023-11-13T03:03:06.279Z,5.66
2023-11-13T03:05:33.566Z,5.67
2023-11-13T03:08:04.331Z,5.67
2023-11-13T03:10:31.586Z,5.69
2023-11-13T03:12:58.699Z,5.71
2023-11-13T03:15:26.040Z,5.69
2023-11-13T03:17:53.128Z,5.72
2023-11-13T03:20:20.059Z,5.71
2023-11-13T03:22:46.690Z,5.70
2023-11-13T03:25:15.993Z,5.72
2023-11-13T03:27:43.043Z,5.71
2023-11-13T03:30:10.725Z,5.72
2023-11-13T03:32:38.129Z,5.73
2023-11-13T03:35:05.574Z,5.73
2023-11-13T03:37:32.390Z,5.73
2023-11-13T03:39:59.346Z,5.76
2023-11-13T03:42:26.237Z,5.76
2023-11-13T03:44:53.303Z,5.76
2023-11-13T03:47:20.232Z,5.76
2023-11-13T03:49:48.101Z,5.76
2023-11-13T03:52:15.103Z,5.79
2023-11-13T03:54:42.291Z,5.78
2023-11-13T03:57:12.182Z,5.79
2023-11-13T03:59:39.245Z,5.79
2023-11-13T04:02:06.166Z,5.79
2023-11-13T04:04:32.972Z,5.79
2023-11-13T04:07:00.017Z,5.80
2023-11-13T04:09:26.633Z,5.82
2023-11-13T04:11:53.282Z,5.82
2023-11-13T04:14:19.800Z,5.84
2023-11-13T04:16:46.317Z,5.84
2023-11-13T04:19:13.856Z,5.84
2023-11-13T04:21:40.424Z,5.86
2023-11-13T04:24:07.745Z,5.86
2023-11-13T04:26:34.257Z,5.87
2023-11-13T04:29:00.717Z,5.88
2023-11-13T04:31:27.305Z,5.88
2023-11-13T04:33:53.843Z,5.88
2023-11-13T04:36:21.972Z,5.88
2023-11-13T04:38:48.606Z,5.90
2023-11-13T04:41:16.909Z,5.89
2023-11-13T04:43:46.795Z,5.91
2023-11-13T04:46:14.250Z,5.93
2023-11-13T04:48:41.135Z,5.94
2023-11-13T04:51:07.903Z,5.95
2023-11-13T04:53:34.707Z,5.95
2023-11-13T04:56:01.152Z,5.96
2023-11-13T04:58:27.845Z,5.97
2023-11-13T05:00:54.969Z,5.98
2023-11-13T05:03:21.992Z,6.00
2023-11-13T05:05:48.795Z,6.00
2023-11-13T05:08:15.510Z,6.01
2023-11-13T05:10:42.112Z,6.02
2023-11-13T05:13:08.823Z,6.02
2023-11-13T05:15:35.375Z,6.04
2023-11-13T05:18:02.682Z,6.05
2023-11-13T05:20:29.523Z,6.04
2023-11-13T05:22:56.002Z,6.05
2023-11-13T05:25:22.690Z,6.06
2023-11-13T05:27:49.966Z,6.07
2023-11-13T05:30:17.023Z,6.08
2023-11-13T05:32:43.756Z,6.10
2023-11-13T05:35:10.438Z,6.10
2023-11-13T05:37:36.932Z,6.12
2023-11-13T05:40:03.836Z,6.13
2023-11-13T05:42:30.523Z,6.14
2023-11-13T05:44:56.978Z,6.14
2023-11-13T05:47:23.969Z,6.13
2023-11-13T05:49:50.537Z,6.15
2023-11-13T05:52:18.781Z,6.16
2023-11-13T05:54:45.444Z,6.17
2023-11-13T05:57:11.929Z,6.18
2023-11-13T05:59:38.417Z,6.19
2023-11-13T06:02:05.067Z,6.20
2023-11-13T06:04:31.606Z,6.20
2023-11-13T06:06:58.280Z,6.22
2023-11-13T06:09:25.399Z,6.21
2023-11-13T06:11:51.961Z,6.22
2023-11-13T06:14:18.598Z,6.24
2023-11-13T06:16:45.419Z,6.25
2023-11-13T06:19:12.013Z,6.25
2023-11-13T06:21:38.549Z,6.27
2023-11-13T06:24:05.418Z,6.29
2023-11-13T06:26:32.020Z,6.28
2023-11-13T06:28:58.698Z,6.30
2023-11-13T06:31:27.120Z,6.31
2023-11-13T06:33:54.284Z,6.32
2023-11-13T06:36:20.900Z,6.31
2023-11-13T06:38:48.943Z,6.34
2023-11-13T06:41:15.634Z,6.35
2023-11-13T06:43:42.334Z,6.36
2023-11-13T06:46:08.941Z,6.38
2023-11-13T06:48:35.952Z,6.37
2023-11-13T06:51:03.000Z,6.39
2023-11-13T06:53:29.634Z,6.38
2023-11-13T06:55:56.159Z,6.40
2023-11-13T06:58:23.659Z,6.41
2023-11-13T07:08:25.216Z,6.47
2023-11-13T07:10:52.303Z,6.48
2023-11-13T07:13:19.284Z,6.50
2023-11-13T07:15:45.832Z,6.54
2023-11-13T07:18:13.550Z,6.55
2023-11-13T07:20:41.155Z,6.55
2023-11-13T07:23:07.570Z,6.58
2023-11-13T07:25:34.122Z,6.60
2023-11-13T07:28:00.761Z,6.62
2023-11-13T07:30:28.822Z,6.63
2023-11-13T07:32:55.626Z,6.64
2023-11-13T07:35:22.096Z,6.67
2023-11-13T07:37:48.818Z,6.67
2023-11-13T07:40:16.475Z,6.71
2023-11-13T07:42:44.581Z,6.71
2023-11-13T07:45:15.152Z,6.72
2023-11-13T07:47:42.118Z,6.73
2023-11-13T07:50:12.999Z,6.74
2023-11-13T07:52:44.931Z,6.75
2023-11-13T07:55:15.794Z,6.77
2023-11-13T07:57:45.020Z,6.78
2023-11-13T08:00:15.139Z,6.80
2023-11-13T08:02:43.808Z,6.83
2023-11-13T08:05:14.017Z,6.85
2023-11-13T08:07:41.909Z,6.87
2023-11-13T08:10:13.772Z,6.89
2023-11-13T08:12:45.772Z,6.91
2023-11-13T08:15:13.909Z,6.94
2023-11-13T08:17:44.771Z,6.97
2023-11-13T08:20:16.206Z,7.00
2023-11-13T08:22:44.139Z,7.03
2023-11-13T08:25:13.685Z,7.04
2023-11-13T08:27:41.746Z,7.06
2023-11-13T08:30:09.522Z,7.09
2023-11-13T08:32:36.804Z,7.11
2023-11-13T08:35:06.760Z,7.13
2023-11-13T08:37:33.747Z,7.16
2023-11-13T08:40:01.933Z,7.18
2023-11-13T08:42:28.892Z,7.19
2023-11-13T08:44:57.286Z,7.23
2023-11-13T08:47:23.998Z,7.24
2023-11-13T08:49:51.056Z,7.26
2023-11-13T08:52:21.263Z,7.31
2023-11-13T08:54:48.080Z,7.32
2023-11-13T08:57:15.010Z,7.35
2023-11-13T08:59:41.517Z,7.37
2023-11-13T09:02:08.109Z,7.43
2023-11-13T09:04:35.975Z,7.46
2023-11-13T09:07:09.103Z,7.48
2023-11-13T09:09:36.275Z,7.52
2023-11-13T09:12:05.098Z,7.59
2023-11-13T09:14:33.431Z,7.61
2023-11-13T09:17:11.082Z,7.67
2023-11-13T09:19:40.264Z,7.73
2023-11-13T09:22:10.718Z,7.79
2023-11-13T09:24:42.102Z,7.81
2023-11-13T09:27:12.965Z,7.85
2023-11-13T09:29:44.638Z,7.91
2023-11-13T09:32:12.439Z,7.95
2023-11-13T09:34:39.278Z,8.01
2023-11-13T09:37:06.938Z,8.04
2023-11-13T09:39:35.909Z,8.08
2023-11-13T09:42:13.887Z,8.12
2023-11-13T09:44:50.708Z,8.17
2023-11-13T09:47:28.595Z,8.18
2023-11-13T09:50:02.500Z,8.22
2023-11-13T09:52:32.088Z,8.27
2023-11-13T09:54:58.821Z,8.29
2023-11-13T09:57:26.998Z,8.34
2023-11-13T09:59:53.947Z,8.35
2023-11-13T10:02:21.429Z,8.37
2023-11-13T10:04:48.259Z,8.40
2023-11-13T10:07:17.733Z,8.42
2023-11-13T10:10:01.561Z,8.45
2023-11-13T10:12:33.035Z,8.44
2023-11-13T10:15:09.384Z,8.46
2023-11-13T10:17:48.163Z,8.50
2023-11-13T10:20:18.633Z,8.52
2023-11-13T10:22:59.464Z,8.54
2023-11-13T10:25:40.620Z,8.54
2023-11-13T10:28:09.344Z,8.54
2023-11-13T10:30:53.645Z,8.57
2023-11-13T10:33:21.205Z,8.56
2023-11-13T10:35:49.940Z,8.59
2023-11-13T10:38:21.741Z,8.60
2023-11-13T10:40:56.395Z,8.61
2023-11-13T10:43:32.019Z,8.63
2023-11-13T10:46:00.518Z,8.63
2023-11-13T10:48:43.793Z,8.65
2023-11-13T10:51:14.345Z,8.69
2023-11-13T10:53:44.108Z,8.69
2023-11-13T10:56:11.733Z,8.67
2023-11-13T10:58:38.990Z,8.68
2023-11-13T11:01:06.765Z,8.70
2023-11-13T11:03:38.467Z,8.73
2023-11-13T11:06:12.352Z,8.75
2023-11-13T11:08:39.511Z,8.76
2023-11-13T11:11:11.586Z,8.79
2023-11-13T11:13:48.755Z,8.81
2023-11-13T11:16:27.539Z,8.82
2023-11-13T11:19:11.675Z,8.83
2023-11-13T11:22:07.658Z,8.85
2023-11-13T11:25:08.275Z,8.86
2023-11-13T11:27:42.895Z,8.88
2023-11-13T11:30:18.721Z,8.88
2023-11-13T11:33:11.770Z,8.89
2023-11-13T11:35:42.683Z,8.89
2023-11-13T11:38:23.255Z,8.93
2023-11-13T11:40:51.070Z,8.99
2023-11-13T11:43:30.310Z,9.01
2023-11-13T11:45:59.945Z,9.04
2023-11-13T11:48:27.563Z,9.06
2023-11-13T11:50:57.460Z,9.09
2023-11-13T11:53:24.733Z,9.09
2023-11-13T11:55:51.829Z,9.12
2023-11-13T11:58:18.610Z,9.16
2023-11-13T12:00:46.474Z,9.20
2023-11-13T12:03:13.195Z,9.25
2023-11-13T12:05:40.935Z,9.29
2023-11-13T12:08:11.214Z,9.31
2023-11-13T12:10:39.629Z,9.37
2023-11-13T12:13:07.953Z,9.43
2023-11-13T12:15:34.847Z,9.45
2023-11-13T12:18:02.553Z,9.49
2023-11-13T12:20:30.199Z,9.53
2023-11-13T12:22:57.062Z,9.57
2023-11-13T12:25:24.662Z,9.59
2023-11-13T12:27:53.083Z,9.59
2023-11-13T12:30:23.660Z,9.62
2023-11-13T12:32:52.455Z,9.69
2023-11-13T12:35:21.506Z,9.78
2023-11-13T12:37:49.796Z,9.86
2023-11-13T12:40:21.573Z,9.93
2023-11-13T12:42:49.186Z,9.97
2023-11-13T12:45:18.965Z,10.04
2023-11-13T12:47:49.829Z,10.11
2023-11-13T12:50:18.188Z,10.23
2023-11-13T12:52:47.955Z,10.32
2023-11-13T12:55:22.808Z,10.45
2023-11-13T12:57:50.864Z,10.52
2023-11-13T13:00:20.625Z,10.57
2023-11-13T13:02:50.781Z,10.66
2023-11-13T13:05:29.194Z,10.74
2023-11-13T13:07:59.883Z,10.79
2023-11-13T13:10:26.770Z,10.87
2023-11-13T13:12:53.439Z,10.98
2023-11-13T13:15:21.855Z,11.04
2023-11-13T13:17:51.989Z,11.06
2023-11-13T13:20:20.053Z,11.13
2023-11-13T13:22:52.724Z,11.18
2023-11-13T13:25:26.348Z,11.19
2023-11-13T13:27:53.220Z,11.26
2023-11-13T13:30:20.290Z,11.29
2023-11-13T13:32:52.290Z,11.29
2023-11-13T13:35:21.247Z,11.31
2023-11-13T13:37:47.971Z,11.32
2023-11-13T13:40:15.127Z,11.39
2023-11-13T13:42:41.781Z,11.46
2023-11-13T13:45:09.435Z,11.49
2023-11-13T13:47:37.096Z,11.57
2023-11-13T13:50:04.205Z,11.59
2023-11-13T13:52:31.556Z,11.57
2023-11-13T13:54:59.646Z,11.57
2023-11-13T13:57:29.352Z,11.61
2023-11-13T13:59:56.313Z,11.64
2023-11-13T14:02:23.011Z,11.73
2023-11-13T14:04:50.194Z,11.74
2023-11-13T14:07:17.069Z,11.73
2023-11-13T14:09:44.805Z,11.73
2023-11-13T14:12:18.711Z,11.75
2023-11-13T14:14:49.490Z,11.73
2023-11-13T14:17:16.242Z,11.77
2023-11-13T14:19:42.730Z,11.72
2023-11-13T14:22:10.472Z,11.71
2023-11-13T14:24:37.609Z,11.68
2023-11-13T14:27:05.267Z,11.65
2023-11-13T14:29:34.763Z,11.65
2023-11-13T14:32:02.150Z,11.64
2023-11-13T14:34:28.669Z,11.64
2023-11-13T14:36:55.433Z,11.64
2023-11-13T14:39:22.146Z,11.64
2023-11-13T14:41:48.630Z,11.63
2023-11-13T14:44:15.066Z,11.63
2023-11-13T14:46:42.093Z,11.64
2023-11-13T14:49:08.914Z,11.62
2023-11-13T14:51:35.626Z,11.64
2023-11-13T14:54:02.785Z,11.64
2023-11-13T14:56:29.213Z,11.64
2023-11-13T14:58:55.647Z,11.61
2023-11-13T15:01:23.679Z,11.60
2023-11-13T15:03:52.440Z,11.58
2023-11-13T15:06:19.126Z,11.58
2023-11-13T15:08:45.627Z,11.55
2023-11-13T15:11:13.379Z,11.57
2023-11-13T15:13:40.575Z,11.56
2023-11-13T15:16:08.774Z,11.59
2023-11-13T15:18:45.316Z,11.58
2023-11-13T15:21:16.423Z,11.57
2023-11-13T15:23:46.731Z,11.59
2023-11-13T15:26:13.765Z,11.60
2023-11-13T15:28:40.686Z,11.59
2023-11-13T15:31:10.042Z,11.59
2023-11-13T15:33:36.674Z,11.59
2023-11-13T15:36:03.408Z,11.55
2023-11-13T15:38:30.825Z,11.54
2023-11-13T15:40:58.352Z,11.52
2023-11-13T15:43:24.854Z,11.50
2023-11-13T15:45:51.395Z,11.50
2023-11-13T15:48:18.515Z,11.49
2023-11-13T15:50:45.479Z,11.48
2023-11-13T15:53:14.102Z,11.46
2023-11-13T15:55:40.590Z,11.43
2023-11-13T15:58:09.162Z,11.41
2023-11-13T16:00:36.741Z,11.40
2023-11-13T16:03:07.728Z,11.40
2023-11-13T16:05:34.832Z,11.39
2023-11-13T16:08:01.292Z,11.38
2023-11-13T16:10:27.844Z,11.35
2023-11-13T16:12:55.255Z,11.34
2023-11-13T16:15:24.303Z,11.31
2023-11-13T16:17:52.233Z,11.31
2023-11-13T16:20:20.546Z,11.30
2023-11-13T16:22:47.175Z,11.29
2023-11-13T16:25:14.369Z,11.25
2023-11-13T16:27:41.456Z,11.23
2023-11-13T16:30:08.769Z,11.21
2023-11-13T16:32:35.637Z,11.20
2023-11-13T16:35:02.194Z,11.20
2023-11-13T16:37:28.650Z,11.19
2023-11-13T16:39:56.548Z,11.17
2023-11-13T16:42:22.982Z,11.16
2023-11-13T16:44:50.440Z,11.14
2023-11-13T16:47:17.021Z,11.12
2023-11-13T16:49:44.246Z,11.09
2023-11-13T16:52:11.700Z,11.08
2023-11-13T16:54:38.203Z,11.07
2023-11-13T16:57:04.947Z,11.06
2023-11-13T16:59:31.355Z,11.03
2023-11-13T17:01:57.755Z,11.01
2023-11-13T17:04:24.227Z,10.98
2023-11-13T17:06:51.369Z,10.96
2023-11-13T17:09:17.882Z,10.92
2023-11-13T17:11:45.222Z,10.92
2023-11-13T17:14:13.145Z,10.87
2023-11-13T17:16:42.628Z,10.86
2023-11-13T17:19:09.895Z,10.84
2023-11-13T17:21:36.445Z,10.81
2023-11-13T17:24:03.010Z,10.78
2023-11-13T17:26:29.473Z,10.76
2023-11-13T17:28:55.982Z,10.77
2023-11-13T17:31:24.611Z,10.78
2023-11-13T17:33:52.721Z,10.79
2023-11-13T17:36:19.635Z,10.79
2023-11-13T17:38:46.041Z,10.77
2023-11-13T17:41:12.481Z,10.78
2023-11-13T17:43:39.033Z,10.78
2023-11-13T17:46:05.842Z,10.78
2023-11-13T17:48:32.332Z,10.78
2023-11-13T17:50:58.764Z,10.77
2023-11-13T17:53:25.293Z,10.78
2023-11-13T17:55:51.777Z,10.80
2023-11-13T17:58:18.449Z,10.81
2023-11-13T18:00:46.702Z,10.82
2023-11-13T18:03:15.989Z,10.80
2023-11-13T18:05:42.574Z,10.81
2023-11-13T18:08:09.747Z,10.80
2023-11-13T18:10:36.297Z,10.81
2023-11-13T18:13:04.676Z,10.81
2023-11-13T18:15:31.135Z,10.83
2023-11-13T18:17:58.439Z,10.81
2023-11-13T18:20:24.919Z,10.81
2023-11-13T18:22:52.106Z,10.80
2023-11-13T18:25:19.372Z,10.80
2023-11-13T18:27:46.410Z,10.79
2023-11-13T18:30:13.894Z,10.80
2023-11-13T18:32:40.583Z,10.80
2023-11-13T18:35:07.998Z,10.79
2023-11-13T18:37:36.219Z,10.78
2023-11-13T18:40:04.179Z,10.76
2023-11-13T18:42:30.586Z,10.76
2023-11-13T18:44:57.139Z,10.75
2023-11-13T18:47:23.742Z,10.74
2023-11-13T18:49:51.014Z,10.76
2023-11-13T18:52:17.741Z,10.75
2023-11-13T18:54:45.546Z,10.75
2023-11-13T18:57:12.218Z,10.76
2023-11-13T18:59:38.639Z,10.76
2023-11-13T19:02:06.751Z,10.75
2023-11-13T19:04:33.221Z,10.76
2023-11-13T19:07:00.075Z,10.76
2023-11-13T19:09:26.507Z,10.76
2023-11-13T19:11:52.961Z,10.79
2023-11-13T19:14:20.112Z,10.79
2023-11-13T19:16:46.613Z,10.81
2023-11-13T19:19:13.196Z,10.81
2023-11-13T19:21:39.643Z,10.82
2023-11-13T19:24:07.126Z,10.81
2023-11-13T19:26:33.653Z,10.82
2023-11-13T19:29:00.831Z,10.82
2023-11-13T19:31:27.656Z,10.84
2023-11-13T19:33:57.002Z,10.86
2023-11-13T19:36:24.614Z,10.86
2023-11-13T19:38:51.134Z,10.85
2023-11-13T19:41:17.543Z,10.85
2023-11-13T19:43:44.274Z,10.85
2023-11-13T19:46:11.426Z,10.85
2023-11-13T19:48:38.107Z,10.84
2023-11-13T19:51:05.764Z,10.83
2023-11-13T19:53:32.420Z,10.85
2023-11-13T19:56:00.589Z,10.86
2023-11-13T19:58:27.101Z,10.85
2023-11-13T20:00:53.735Z,10.85
2023-11-13T20:03:20.397Z,10.85
2023-11-13T20:05:46.829Z,10.85
2023-11-13T20:08:14.234Z,10.86
2023-11-13T20:10:41.815Z,10.85
2023-11-13T20:13:08.259Z,10.85
2023-11-13T20:15:34.680Z,10.85
2023-11-13T20:18:01.228Z,10.86
2023-11-13T20:20:28.030Z,10.86
2023-11-13T20:22:54.493Z,10.87
2023-11-13T20:25:21.676Z,10.87
2023-11-13T20:27:48.202Z,10.88
2023-11-13T20:30:15.302Z,10.87
2023-11-13T20:32:41.838Z,10.86
2023-11-13T20:35:08.681Z,10.87
2023-11-13T20:37:35.224Z,10.85
2023-11-13T20:40:01.732Z,10.86
2023-11-13T20:42:28.271Z,10.86
2023-11-13T20:44:54.723Z,10.86
2023-11-13T20:47:21.324Z,10.85
2023-11-13T20:49:48.022Z,10.86
2023-11-13T20:52:16.566Z,10.86
2023-11-13T20:54:45.240Z,10.88
2023-11-13T20:57:11.986Z,10.88
2023-11-13T20:59:39.087Z,10.90
2023-11-13T21:02:08.696Z,10.90
2023-11-13T21:04:35.208Z,10.88
2023-11-13T21:07:01.745Z,10.89
2023-11-13T21:09:28.317Z,10.90
2023-11-13T21:11:55.624Z,10.91
2023-11-13T21:14:22.062Z,10.90
2023-11-13T21:16:48.519Z,10.91
2023-11-13T21:19:15.052Z,10.91
2023-11-13T21:21:41.463Z,10.93
2023-11-13T21:24:10.452Z,10.96
2023-11-13T21:26:37.154Z,10.97
2023-11-13T21:29:04.916Z,10.96
2023-11-13T21:31:31.906Z,10.98
2023-11-13T21:33:59.580Z,10.99
2023-11-13T21:36:26.728Z,11.01
2023-11-13T21:38:54.543Z,11.02
2023-11-13T21:41:21.585Z,11.01
2023-11-13T21:43:51.099Z,11.01
2023-11-13T21:46:17.917Z,11.02
2023-11-13T21:48:44.451Z,11.04
2023-11-13T21:51:11.248Z,11.04
2023-11-13T21:53:38.432Z,11.04
2023-11-13T21:56:08.210Z,11.03
2023-11-13T21:58:34.815Z,11.04
2023-11-13T22:01:01.811Z,11.05
2023-11-13T22:03:30.114Z,11.05
2023-11-13T22:05:58.559Z,11.05
2023-11-13T22:08:25.430Z,11.06
2023-11-13T22:10:53.478Z,11.07
2023-11-13T22:13:20.234Z,11.07
2023-11-13T22:15:46.687Z,11.07
2023-11-13T22:18:13.165Z,11.06
2023-11-13T22:20:39.657Z,11.07
2023-11-13T22:23:09.238Z,11.07
2023-11-13T22:25:36.183Z,11.08
2023-11-13T22:28:02.948Z,11.10
2023-11-13T22:30:29.832Z,11.11
2023-11-13T22:32:57.825Z,11.12
2023-11-13T22:35:24.577Z,11.11
2023-11-13T22:37:51.136Z,11.12
2023-11-13T22:40:17.603Z,11.11
2023-11-13T22:42:44.197Z,11.08
2023-11-13T22:45:11.334Z,11.08
2023-11-13T22:47:37.901Z,11.07
2023-11-13T22:50:06.827Z,11.06
2023-11-13T22:52:33.308Z,11.07
2023-11-13T22:55:02.922Z,11.05
2023-11-13T22:57:30.253Z,11.05
2023-11-13T22:59:57.740Z,11.05
2023-11-13T23:02:24.285Z,11.06
2023-11-13T23:05:08.346Z,11.06
2023-11-13T23:07:34.817Z,11.07
2023-11-13T23:10:01.438Z,11.08
2023-11-13T23:12:28.398Z,11.12
2023-11-13T23:15:05.642Z,11.13
2023-11-13T23:17:38.323Z,11.14
2023-11-13T23:20:22.065Z,11.15
2023-11-13T23:22:50.912Z,11.16
2023-11-13T23:25:17.385Z,11.17
2023-11-13T23:27:43.819Z,11.17
2023-11-13T23:30:14.936Z,11.17
2023-11-13T23:32:41.601Z,11.19
2023-11-13T23:35:10.243Z,11.19
2023-11-13T23:37:37.459Z,11.19
2023-11-13T23:40:06.304Z,11.18
2023-11-13T23:42:37.702Z,11.20
2023-11-13T23:45:06.433Z,11.21
2023-11-13T23:47:35.671Z,11.20
2023-11-13T23:50:03.454Z,11.20
2023-11-13T23:52:54.003Z,11.22
2023-11-13T23:55:45.603Z,11.21
2023-11-13T23:58:12.211Z,11.21
